Lincoln Airport

Airport
ICAO code: 
KLNK
Summary
ICAO Region: 
NAM
Territory: 
Location: 
Lincoln, Nebraska,
Coordinates: 
Aerial View: 
40° 50' 48.826" N, 96° 45' 19.208" W
Airport LOS: 
Parallel Runway Operation
Metar
Observation
KLNK 020954Z 26005KT 10SM CLR 11/00 A2990 RMK AO2 SLP122 T01110000
Station
Lincoln, Lincoln Municipal Airport
Date/Time
2021-12-02 09:54:00
Wind direction
260°
Wind speed
05 kts
Lowest cloud amount
n/a
Temperature
11.1°C
Dew point
0°C
Humidity
46%
Weather condition
n/a

Description

Lincoln Airport, formerly known as Lincoln Municipal Airport, is a joint public/military (ANG) use airport located 7 km northwest of the central business district of Lincoln, which is located in Lancaster County, Nebraska.

Climatology

Humid continental climate (Köppen climate classification Dfa) - characterized by four seasons: cold, windy, snowy winters, mild springs, hot, humid summers, and crisp and relatively short autumns. Precipitation reaches its lowest in January and February and peaks in summer and latter half of spring.

Runways

Designator Length Width Surface Rops
17/35 1646 30 PEM Yes/Yes
14/32 2636 46 PEM Yes/Yes
18/36 3932 61 PEM Yes/Yes
Airport map: 
Aerial View: 

SKYbrary Partners:

Safety knowledge contributed by: